sensor_id;sensor_type;location;lat;lon;timestamp;P1;durP1;ratioP1;P2;durP2;ratioP2
16963;SDS011;8598;50.508;10.436;2022-11-20T00:01:15;18.67;;;9.27;;
16963;SDS011;8598;50.508;10.436;2022-11-20T00:03:43;22.97;;;10.50;;
16963;SDS011;8598;50.508;10.436;2022-11-20T00:06:10;20.67;;;11.57;;
16963;SDS011;8598;50.508;10.436;2022-11-20T00:08:38;29.00;;;12.20;;
16963;SDS011;8598;50.508;10.436;2022-11-20T00:11:06;29.93;;;12.53;;
16963;SDS011;8598;50.508;10.436;2022-11-20T00:13:34;22.17;;;12.00;;
16963;SDS011;8598;50.508;10.436;2022-11-20T00:16:01;53.93;;;13.77;;
16963;SDS011;8598;50.508;10.436;2022-11-20T00:18:30;35.23;;;11.77;;
16963;SDS011;8598;50.508;10.436;2022-11-20T00:21:02;38.10;;;11.60;;
16963;SDS011;8598;50.508;10.436;2022-11-20T00:23:29;37.13;;;11.57;;
16963;SDS011;8598;50.508;10.436;2022-11-20T00:25:56;43.50;;;11.67;;
16963;SDS011;8598;50.508;10.436;2022-11-20T00:28:23;31.90;;;11.23;;
16963;SDS011;8598;50.508;10.436;2022-11-20T00:30:49;29.80;;;12.00;;
16963;SDS011;8598;50.508;10.436;2022-11-20T00:33:16;29.57;;;12.20;;
16963;SDS011;8598;50.508;10.436;2022-11-20T00:35:44;25.23;;;12.53;;
16963;SDS011;8598;50.508;10.436;2022-11-20T00:38:11;38.97;;;11.73;;
16963;SDS011;8598;50.508;10.436;2022-11-20T00:40:38;33.40;;;11.30;;
16963;SDS011;8598;50.508;10.436;2022-11-20T00:43:04;54.70;;;12.80;;
16963;SDS011;8598;50.508;10.436;2022-11-20T00:45:31;34.73;;;12.00;;
16963;SDS011;8598;50.508;10.436;2022-11-20T00:47:58;24.00;;;10.77;;
16963;SDS011;8598;50.508;10.436;2022-11-20T00:50:24;32.80;;;15.20;;
16963;SDS011;8598;50.508;10.436;2022-11-20T00:52:52;31.63;;;14.23;;
16963;SDS011;8598;50.508;10.436;2022-11-20T00:55:19;43.50;;;15.20;;
16963;SDS011;8598;50.508;10.436;2022-11-20T00:57:46;34.93;;;13.03;;
16963;SDS011;8598;50.508;10.436;2022-11-20T01:00:13;22.83;;;11.93;;
16963;SDS011;8598;50.508;10.436;2022-11-20T01:02:40;24.97;;;11.23;;
16963;SDS011;8598;50.508;10.436;2022-11-20T01:05:06;31.80;;;10.47;;
16963;SDS011;8598;50.508;10.436;2022-11-20T01:07:33;30.73;;;12.00;;
16963;SDS011;8598;50.508;10.436;2022-11-20T01:10:01;29.97;;;12.50;;
16963;SDS011;8598;50.508;10.436;2022-11-20T01:12:28;24.17;;;11.43;;
16963;SDS011;8598;50.508;10.436;2022-11-20T01:14:55;28.90;;;12.63;;
16963;SDS011;8598;50.508;10.436;2022-11-20T01:17:22;24.40;;;11.93;;
16963;SDS011;8598;50.508;10.436;2022-11-20T01:19:49;27.23;;;11.33;;
16963;SDS011;8598;50.508;10.436;2022-11-20T01:22:16;23.37;;;11.07;;
16963;SDS011;8598;50.508;10.436;2022-11-20T01:24:42;20.00;;;11.80;;
16963;SDS011;8598;50.508;10.436;2022-11-20T01:27:10;27.67;;;11.83;;
16963;SDS011;8598;50.508;10.436;2022-11-20T01:29:37;27.27;;;11.47;;
16963;SDS011;8598;50.508;10.436;2022-11-20T01:32:04;27.47;;;12.50;;
16963;SDS011;8598;50.508;10.436;2022-11-20T01:34:31;26.57;;;12.03;;
16963;SDS011;8598;50.508;10.436;2022-11-20T01:36:57;20.63;;;10.63;;
16963;SDS011;8598;50.508;10.436;2022-11-20T01:39:25;27.17;;;11.73;;
16963;SDS011;8598;50.508;10.436;2022-11-20T01:41:53;25.77;;;11.13;;
16963;SDS011;8598;50.508;10.436;2022-11-20T01:44:50;21.63;;;11.10;;
16963;SDS011;8598;50.508;10.436;2022-11-20T01:47:24;19.27;;;11.00;;
16963;SDS011;8598;50.508;10.436;2022-11-20T01:49:56;15.83;;;9.30;;
16963;SDS011;8598;50.508;10.436;2022-11-20T01:52:26;20.37;;;10.20;;
16963;SDS011;8598;50.508;10.436;2022-11-20T01:54:58;25.30;;;10.70;;
16963;SDS011;8598;50.508;10.436;2022-11-20T01:57:29;18.57;;;10.03;;
16963;SDS011;8598;50.508;10.436;2022-11-20T02:00:02;21.43;;;10.27;;
16963;SDS011;8598;50.508;10.436;2022-11-20T02:02:31;23.57;;;9.97;;
16963;SDS011;8598;50.508;10.436;2022-11-20T02:05:00;21.47;;;11.00;;
16963;SDS011;8598;50.508;10.436;2022-11-20T02:07:35;17.80;;;9.43;;
16963;SDS011;8598;50.508;10.436;2022-11-20T02:10:03;23.17;;;9.80;;
16963;SDS011;8598;50.508;10.436;2022-11-20T02:12:30;19.73;;;11.00;;
16963;SDS011;8598;50.508;10.436;2022-11-20T02:15:15;18.43;;;10.03;;
16963;SDS011;8598;50.508;10.436;2022-11-20T02:17:42;16.63;;;10.00;;
16963;SDS011;8598;50.508;10.436;2022-11-20T02:20:09;23.33;;;11.47;;
16963;SDS011;8598;50.508;10.436;2022-11-20T02:22:38;18.83;;;9.53;;
16963;SDS011;8598;50.508;10.436;2022-11-20T02:25:15;23.20;;;9.43;;
16963;SDS011;8598;50.508;10.436;2022-11-20T02:27:42;25.77;;;10.37;;
16963;SDS011;8598;50.508;10.436;2022-11-20T02:30:09;17.23;;;8.83;;
16963;SDS011;8598;50.508;10.436;2022-11-20T02:32:37;18.27;;;9.17;;
16963;SDS011;8598;50.508;10.436;2022-11-20T02:35:06;21.30;;;9.47;;
16963;SDS011;8598;50.508;10.436;2022-11-20T02:37:34;14.77;;;8.77;;
16963;SDS011;8598;50.508;10.436;2022-11-20T02:40:05;15.00;;;9.10;;
16963;SDS011;8598;50.508;10.436;2022-11-20T02:42:34;17.93;;;8.87;;
16963;SDS011;8598;50.508;10.436;2022-11-20T02:45:01;22.00;;;9.37;;
16963;SDS011;8598;50.508;10.436;2022-11-20T02:47:27;19.20;;;9.10;;
16963;SDS011;8598;50.508;10.436;2022-11-20T02:49:54;14.73;;;7.80;;
16963;SDS011;8598;50.508;10.436;2022-11-20T02:52:21;16.13;;;9.50;;
16963;SDS011;8598;50.508;10.436;2022-11-20T02:54:48;18.60;;;10.20;;
16963;SDS011;8598;50.508;10.436;2022-11-20T02:57:15;15.87;;;8.67;;
16963;SDS011;8598;50.508;10.436;2022-11-20T02:59:43;18.27;;;8.90;;
16963;SDS011;8598;50.508;10.436;2022-11-20T03:02:10;20.40;;;10.97;;
16963;SDS011;8598;50.508;10.436;2022-11-20T03:04:36;22.03;;;10.00;;
16963;SDS011;8598;50.508;10.436;2022-11-20T03:07:03;25.20;;;10.57;;
16963;SDS011;8598;50.508;10.436;2022-11-20T03:09:30;15.40;;;8.07;;
16963;SDS011;8598;50.508;10.436;2022-11-20T03:11:57;18.20;;;9.13;;
16963;SDS011;8598;50.508;10.436;2022-11-20T03:14:23;20.07;;;9.90;;
16963;SDS011;8598;50.508;10.436;2022-11-20T03:16:51;20.90;;;11.17;;
16963;SDS011;8598;50.508;10.436;2022-11-20T03:19:18;22.97;;;10.70;;
16963;SDS011;8598;50.508;10.436;2022-11-20T03:21:45;20.70;;;9.53;;
16963;SDS011;8598;50.508;10.436;2022-11-20T03:24:12;19.80;;;9.57;;
16963;SDS011;8598;50.508;10.436;2022-11-20T03:26:39;22.50;;;10.90;;
16963;SDS011;8598;50.508;10.436;2022-11-20T03:29:06;19.87;;;10.10;;
16963;SDS011;8598;50.508;10.436;2022-11-20T03:31:34;42.37;;;21.43;;
16963;SDS011;8598;50.508;10.436;2022-11-20T03:34:03;15.60;;;8.60;;
16963;SDS011;8598;50.508;10.436;2022-11-20T03:36:30;19.67;;;10.27;;
16963;SDS011;8598;50.508;10.436;2022-11-20T03:38:57;22.00;;;11.27;;
16963;SDS011;8598;50.508;10.436;2022-11-20T03:41:25;19.40;;;9.63;;
16963;SDS011;8598;50.508;10.436;2022-11-20T03:43:54;17.73;;;8.70;;
16963;SDS011;8598;50.508;10.436;2022-11-20T03:46:23;14.63;;;9.30;;
16963;SDS011;8598;50.508;10.436;2022-11-20T03:48:50;16.83;;;8.43;;
16963;SDS011;8598;50.508;10.436;2022-11-20T03:51:19;19.87;;;9.30;;
16963;SDS011;8598;50.508;10.436;2022-11-20T03:53:47;21.17;;;11.17;;
16963;SDS011;8598;50.508;10.436;2022-11-20T03:56:16;20.20;;;11.23;;
16963;SDS011;8598;50.508;10.436;2022-11-20T03:58:44;16.23;;;9.53;;
16963;SDS011;8598;50.508;10.436;2022-11-20T04:01:12;19.47;;;8.67;;
16963;SDS011;8598;50.508;10.436;2022-11-20T04:03:40;19.03;;;9.97;;
16963;SDS011;8598;50.508;10.436;2022-11-20T04:06:09;13.17;;;7.80;;
16963;SDS011;8598;50.508;10.436;2022-11-20T04:08:38;19.57;;;8.53;;
16963;SDS011;8598;50.508;10.436;2022-11-20T04:11:12;14.80;;;7.97;;
16963;SDS011;8598;50.508;10.436;2022-11-20T04:13:41;18.70;;;8.90;;
16963;SDS011;8598;50.508;10.436;2022-11-20T04:16:09;15.43;;;8.00;;
16963;SDS011;8598;50.508;10.436;2022-11-20T04:18:36;14.90;;;8.17;;
16963;SDS011;8598;50.508;10.436;2022-11-20T04:21:04;20.77;;;9.83;;
16963;SDS011;8598;50.508;10.436;2022-11-20T04:23:31;16.80;;;8.67;;
16963;SDS011;8598;50.508;10.436;2022-11-20T04:26:02;14.07;;;8.33;;
16963;SDS011;8598;50.508;10.436;2022-11-20T04:28:30;18.07;;;9.17;;
16963;SDS011;8598;50.508;10.436;2022-11-20T04:31:03;18.63;;;9.47;;
16963;SDS011;8598;50.508;10.436;2022-11-20T04:33:31;15.30;;;7.87;;
16963;SDS011;8598;50.508;10.436;2022-11-20T04:36:00;17.73;;;9.03;;
16963;SDS011;8598;50.508;10.436;2022-11-20T04:38:30;16.60;;;8.77;;
16963;SDS011;8598;50.508;10.436;2022-11-20T04:40:58;16.87;;;8.80;;
16963;SDS011;8598;50.508;10.436;2022-11-20T04:43:27;15.73;;;8.47;;
16963;SDS011;8598;50.508;10.436;2022-11-20T04:45:54;24.23;;;8.37;;
16963;SDS011;8598;50.508;10.436;2022-11-20T04:48:22;13.43;;;7.70;;
16963;SDS011;8598;50.508;10.436;2022-11-20T04:50:49;14.77;;;8.50;;
16963;SDS011;8598;50.508;10.436;2022-11-20T04:53:17;17.07;;;8.50;;
16963;SDS011;8598;50.508;10.436;2022-11-20T04:55:43;19.47;;;8.40;;
16963;SDS011;8598;50.508;10.436;2022-11-20T04:58:10;14.70;;;8.40;;
16963;SDS011;8598;50.508;10.436;2022-11-20T05:00:38;18.40;;;8.93;;
16963;SDS011;8598;50.508;10.436;2022-11-20T05:03:05;15.77;;;8.83;;
16963;SDS011;8598;50.508;10.436;2022-11-20T05:05:33;21.40;;;10.37;;
16963;SDS011;8598;50.508;10.436;2022-11-20T05:07:59;24.97;;;9.43;;
16963;SDS011;8598;50.508;10.436;2022-11-20T05:10:26;21.80;;;8.77;;
16963;SDS011;8598;50.508;10.436;2022-11-20T05:12:53;21.27;;;8.53;;
16963;SDS011;8598;50.508;10.436;2022-11-20T05:15:20;15.37;;;8.13;;
16963;SDS011;8598;50.508;10.436;2022-11-20T05:17:48;20.40;;;8.57;;
16963;SDS011;8598;50.508;10.436;2022-11-20T05:20:16;23.70;;;9.57;;
16963;SDS011;8598;50.508;10.436;2022-11-20T05:22:42;15.63;;;7.77;;
16963;SDS011;8598;50.508;10.436;2022-11-20T05:25:10;14.07;;;7.40;;
16963;SDS011;8598;50.508;10.436;2022-11-20T05:27:37;21.47;;;8.97;;
16963;SDS011;8598;50.508;10.436;2022-11-20T05:30:04;15.90;;;8.90;;
16963;SDS011;8598;50.508;10.436;2022-11-20T05:32:32;18.67;;;8.20;;
16963;SDS011;8598;50.508;10.436;2022-11-20T05:35:00;15.23;;;8.90;;
16963;SDS011;8598;50.508;10.436;2022-11-20T05:37:27;15.13;;;9.60;;
16963;SDS011;8598;50.508;10.436;2022-11-20T05:39:54;20.80;;;10.47;;
16963;SDS011;8598;50.508;10.436;2022-11-20T05:42:20;17.43;;;8.70;;
16963;SDS011;8598;50.508;10.436;2022-11-20T05:44:56;13.83;;;7.43;;
16963;SDS011;8598;50.508;10.436;2022-11-20T05:47:23;18.73;;;8.40;;
16963;SDS011;8598;50.508;10.436;2022-11-20T05:49:50;16.63;;;6.87;;
16963;SDS011;8598;50.508;10.436;2022-11-20T05:52:18;16.80;;;8.83;;
16963;SDS011;8598;50.508;10.436;2022-11-20T05:54:45;15.63;;;7.87;;
16963;SDS011;8598;50.508;10.436;2022-11-20T05:57:12;11.33;;;6.83;;
16963;SDS011;8598;50.508;10.436;2022-11-20T05:59:38;14.73;;;7.77;;
16963;SDS011;8598;50.508;10.436;2022-11-20T06:02:05;20.10;;;8.70;;
16963;SDS011;8598;50.508;10.436;2022-11-20T06:04:32;14.80;;;8.63;;
16963;SDS011;8598;50.508;10.436;2022-11-20T06:06:59;14.30;;;8.27;;
16963;SDS011;8598;50.508;10.436;2022-11-20T06:09:27;14.23;;;7.87;;
16963;SDS011;8598;50.508;10.436;2022-11-20T06:11:53;19.30;;;8.30;;
16963;SDS011;8598;50.508;10.436;2022-11-20T06:14:20;19.43;;;8.97;;
16963;SDS011;8598;50.508;10.436;2022-11-20T06:16:47;17.00;;;9.57;;
16963;SDS011;8598;50.508;10.436;2022-11-20T06:19:14;15.80;;;7.33;;
16963;SDS011;8598;50.508;10.436;2022-11-20T06:21:41;17.20;;;8.23;;
16963;SDS011;8598;50.508;10.436;2022-11-20T06:24:08;14.77;;;8.70;;
16963;SDS011;8598;50.508;10.436;2022-11-20T06:26:37;15.77;;;9.33;;
16963;SDS011;8598;50.508;10.436;2022-11-20T06:29:03;21.30;;;10.33;;
16963;SDS011;8598;50.508;10.436;2022-11-20T06:31:30;21.23;;;9.53;;
16963;SDS011;8598;50.508;10.436;2022-11-20T06:33:59;23.20;;;10.60;;
16963;SDS011;8598;50.508;10.436;2022-11-20T06:36:26;18.47;;;9.80;;
16963;SDS011;8598;50.508;10.436;2022-11-20T06:38:53;21.20;;;9.60;;
16963;SDS011;8598;50.508;10.436;2022-11-20T06:41:20;21.53;;;9.20;;
16963;SDS011;8598;50.508;10.436;2022-11-20T06:43:49;19.07;;;9.83;;
16963;SDS011;8598;50.508;10.436;2022-11-20T06:46:16;21.47;;;9.27;;
16963;SDS011;8598;50.508;10.436;2022-11-20T06:48:45;21.53;;;9.93;;
16963;SDS011;8598;50.508;10.436;2022-11-20T06:51:12;26.27;;;12.83;;
16963;SDS011;8598;50.508;10.436;2022-11-20T06:53:39;23.93;;;10.87;;
16963;SDS011;8598;50.508;10.436;2022-11-20T06:56:06;25.23;;;9.33;;
16963;SDS011;8598;50.508;10.436;2022-11-20T06:58:33;21.30;;;10.17;;
16963;SDS011;8598;50.508;10.436;2022-11-20T07:01:03;23.17;;;10.33;;
16963;SDS011;8598;50.508;10.436;2022-11-20T07:03:32;21.93;;;12.13;;
16963;SDS011;8598;50.508;10.436;2022-11-20T07:05:59;25.90;;;11.60;;
16963;SDS011;8598;50.508;10.436;2022-11-20T07:08:27;28.30;;;10.90;;
16963;SDS011;8598;50.508;10.436;2022-11-20T07:10:56;26.83;;;10.77;;
16963;SDS011;8598;50.508;10.436;2022-11-20T07:13:24;29.33;;;12.20;;
16963;SDS011;8598;50.508;10.436;2022-11-20T07:15:51;30.87;;;12.67;;
16963;SDS011;8598;50.508;10.436;2022-11-20T07:18:19;26.20;;;12.33;;
16963;SDS011;8598;50.508;10.436;2022-11-20T07:20:45;26.27;;;11.97;;
16963;SDS011;8598;50.508;10.436;2022-11-20T07:23:12;32.40;;;13.43;;
16963;SDS011;8598;50.508;10.436;2022-11-20T07:25:39;32.20;;;12.67;;
16963;SDS011;8598;50.508;10.436;2022-11-20T07:28:06;28.23;;;11.03;;
16963;SDS011;8598;50.508;10.436;2022-11-20T07:30:32;33.83;;;13.70;;
16963;SDS011;8598;50.508;10.436;2022-11-20T07:32:59;28.90;;;12.73;;
16963;SDS011;8598;50.508;10.436;2022-11-20T07:35:27;24.90;;;9.57;;
16963;SDS011;8598;50.508;10.436;2022-11-20T07:37:54;29.10;;;10.63;;
16963;SDS011;8598;50.508;10.436;2022-11-20T07:40:21;31.33;;;12.20;;
16963;SDS011;8598;50.508;10.436;2022-11-20T07:42:48;28.80;;;12.83;;
16963;SDS011;8598;50.508;10.436;2022-11-20T07:45:16;30.33;;;12.00;;
16963;SDS011;8598;50.508;10.436;2022-11-20T07:47:43;22.37;;;10.10;;
16963;SDS011;8598;50.508;10.436;2022-11-20T07:50:10;23.43;;;10.63;;
16963;SDS011;8598;50.508;10.436;2022-11-20T07:52:38;25.03;;;11.00;;
16963;SDS011;8598;50.508;10.436;2022-11-20T07:55:06;32.87;;;13.33;;
16963;SDS011;8598;50.508;10.436;2022-11-20T07:57:33;31.43;;;13.23;;
16963;SDS011;8598;50.508;10.436;2022-11-20T08:00:00;29.00;;;13.90;;
16963;SDS011;8598;50.508;10.436;2022-11-20T08:02:27;24.43;;;11.87;;
16963;SDS011;8598;50.508;10.436;2022-11-20T08:04:53;24.03;;;11.57;;
16963;SDS011;8598;50.508;10.436;2022-11-20T08:07:20;24.70;;;11.97;;
16963;SDS011;8598;50.508;10.436;2022-11-20T08:09:48;25.70;;;11.43;;
16963;SDS011;8598;50.508;10.436;2022-11-20T08:12:16;32.13;;;11.73;;
16963;SDS011;8598;50.508;10.436;2022-11-20T08:15:03;28.90;;;11.83;;
16963;SDS011;8598;50.508;10.436;2022-11-20T08:17:30;29.47;;;11.43;;
16963;SDS011;8598;50.508;10.436;2022-11-20T08:19:57;29.23;;;12.23;;
16963;SDS011;8598;50.508;10.436;2022-11-20T08:22:24;26.00;;;12.57;;
16963;SDS011;8598;50.508;10.436;2022-11-20T08:24:52;34.70;;;13.73;;
16963;SDS011;8598;50.508;10.436;2022-11-20T08:27:19;29.43;;;11.57;;
16963;SDS011;8598;50.508;10.436;2022-11-20T08:29:45;31.93;;;12.80;;
16963;SDS011;8598;50.508;10.436;2022-11-20T08:32:12;27.40;;;11.73;;
16963;SDS011;8598;50.508;10.436;2022-11-20T08:34:39;28.07;;;12.77;;
16963;SDS011;8598;50.508;10.436;2022-11-20T08:37:06;37.17;;;15.33;;
16963;SDS011;8598;50.508;10.436;2022-11-20T08:39:32;39.63;;;16.57;;
16963;SDS011;8598;50.508;10.436;2022-11-20T08:42:00;37.90;;;18.77;;
16963;SDS011;8598;50.508;10.436;2022-11-20T08:44:27;31.73;;;17.07;;
16963;SDS011;8598;50.508;10.436;2022-11-20T08:46:54;38.23;;;15.83;;
16963;SDS011;8598;50.508;10.436;2022-11-20T08:49:22;32.27;;;14.23;;
16963;SDS011;8598;50.508;10.436;2022-11-20T08:51:48;27.90;;;13.33;;
16963;SDS011;8598;50.508;10.436;2022-11-20T08:54:18;28.33;;;14.00;;
16963;SDS011;8598;50.508;10.436;2022-11-20T08:56:46;30.50;;;15.17;;
16963;SDS011;8598;50.508;10.436;2022-11-20T08:59:15;27.20;;;12.73;;
16963;SDS011;8598;50.508;10.436;2022-11-20T09:01:41;29.40;;;15.37;;
16963;SDS011;8598;50.508;10.436;2022-11-20T09:04:08;52.57;;;24.83;;
16963;SDS011;8598;50.508;10.436;2022-11-20T09:06:36;39.43;;;16.83;;
16963;SDS011;8598;50.508;10.436;2022-11-20T09:09:03;49.93;;;22.60;;
16963;SDS011;8598;50.508;10.436;2022-11-20T09:11:30;40.43;;;18.17;;
16963;SDS011;8598;50.508;10.436;2022-11-20T09:13:57;44.40;;;20.07;;
16963;SDS011;8598;50.508;10.436;2022-11-20T09:16:26;72.07;;;31.73;;
16963;SDS011;8598;50.508;10.436;2022-11-20T09:18:53;42.70;;;18.73;;
16963;SDS011;8598;50.508;10.436;2022-11-20T09:21:19;31.53;;;14.63;;
16963;SDS011;8598;50.508;10.436;2022-11-20T09:23:47;30.97;;;14.43;;
16963;SDS011;8598;50.508;10.436;2022-11-20T09:26:14;33.20;;;13.83;;
16963;SDS011;8598;50.508;10.436;2022-11-20T09:28:41;36.03;;;15.60;;
16963;SDS011;8598;50.508;10.436;2022-11-20T09:31:07;40.30;;;13.93;;
16963;SDS011;8598;50.508;10.436;2022-11-20T09:33:36;43.13;;;16.37;;
16963;SDS011;8598;50.508;10.436;2022-11-20T09:36:04;42.50;;;17.93;;
16963;SDS011;8598;50.508;10.436;2022-11-20T09:38:31;43.10;;;18.07;;
16963;SDS011;8598;50.508;10.436;2022-11-20T09:40:58;42.83;;;20.57;;
16963;SDS011;8598;50.508;10.436;2022-11-20T09:43:32;33.03;;;16.13;;
16963;SDS011;8598;50.508;10.436;2022-11-20T09:46:12;44.57;;;15.83;;
16963;SDS011;8598;50.508;10.436;2022-11-20T09:48:58;32.50;;;14.23;;
16963;SDS011;8598;50.508;10.436;2022-11-20T09:51:35;36.03;;;15.13;;
16963;SDS011;8598;50.508;10.436;2022-11-20T09:54:11;36.60;;;15.47;;
16963;SDS011;8598;50.508;10.436;2022-11-20T09:56:42;33.43;;;15.90;;
16963;SDS011;8598;50.508;10.436;2022-11-20T09:59:15;32.73;;;15.17;;
16963;SDS011;8598;50.508;10.436;2022-11-20T10:01:59;42.27;;;20.23;;
16963;SDS011;8598;50.508;10.436;2022-11-20T10:04:28;36.00;;;17.07;;
16963;SDS011;8598;50.508;10.436;2022-11-20T10:07:00;36.13;;;15.73;;
16963;SDS011;8598;50.508;10.436;2022-11-20T10:09:31;33.83;;;16.13;;
16963;SDS011;8598;50.508;10.436;2022-11-20T10:12:04;37.97;;;16.83;;
16963;SDS011;8598;50.508;10.436;2022-11-20T10:14:40;32.70;;;16.13;;
16963;SDS011;8598;50.508;10.436;2022-11-20T10:17:24;34.10;;;14.83;;
16963;SDS011;8598;50.508;10.436;2022-11-20T10:20:07;30.63;;;14.77;;
16963;SDS011;8598;50.508;10.436;2022-11-20T10:22:45;34.87;;;17.23;;
16963;SDS011;8598;50.508;10.436;2022-11-20T10:25:22;44.73;;;21.00;;
16963;SDS011;8598;50.508;10.436;2022-11-20T10:27:56;33.80;;;17.27;;
16963;SDS011;8598;50.508;10.436;2022-11-20T10:30:36;37.33;;;17.33;;
16963;SDS011;8598;50.508;10.436;2022-11-20T10:33:08;41.83;;;19.23;;
16963;SDS011;8598;50.508;10.436;2022-11-20T10:35:44;38.13;;;21.20;;
16963;SDS011;8598;50.508;10.436;2022-11-20T10:38:16;37.67;;;19.37;;
16963;SDS011;8598;50.508;10.436;2022-11-20T10:40:48;43.27;;;20.30;;
16963;SDS011;8598;50.508;10.436;2022-11-20T10:43:19;36.03;;;16.70;;
16963;SDS011;8598;50.508;10.436;2022-11-20T10:45:55;40.33;;;19.50;;
16963;SDS011;8598;50.508;10.436;2022-11-20T10:48:25;33.77;;;15.70;;
16963;SDS011;8598;50.508;10.436;2022-11-20T10:51:07;35.60;;;16.80;;
16963;SDS011;8598;50.508;10.436;2022-11-20T10:53:47;36.03;;;16.83;;
16963;SDS011;8598;50.508;10.436;2022-11-20T10:56:21;31.53;;;16.60;;
16963;SDS011;8598;50.508;10.436;2022-11-20T10:58:58;35.30;;;16.80;;
16963;SDS011;8598;50.508;10.436;2022-11-20T11:01:38;34.30;;;18.97;;
16963;SDS011;8598;50.508;10.436;2022-11-20T11:04:07;35.63;;;17.77;;
16963;SDS011;8598;50.508;10.436;2022-11-20T11:06:50;32.97;;;16.43;;
16963;SDS011;8598;50.508;10.436;2022-11-20T11:09:20;38.30;;;17.10;;
16963;SDS011;8598;50.508;10.436;2022-11-20T11:11:56;36.37;;;17.73;;
16963;SDS011;8598;50.508;10.436;2022-11-20T11:14:23;37.27;;;16.97;;
16963;SDS011;8598;50.508;10.436;2022-11-20T11:16:50;35.73;;;17.93;;
16963;SDS011;8598;50.508;10.436;2022-11-20T11:19:19;36.90;;;17.80;;
16963;SDS011;8598;50.508;10.436;2022-11-20T11:21:46;32.20;;;16.63;;
16963;SDS011;8598;50.508;10.436;2022-11-20T11:24:19;35.90;;;17.33;;
16963;SDS011;8598;50.508;10.436;2022-11-20T11:26:51;39.40;;;16.77;;
16963;SDS011;8598;50.508;10.436;2022-11-20T11:29:21;40.10;;;17.03;;
16963;SDS011;8598;50.508;10.436;2022-11-20T11:31:48;33.63;;;18.30;;
16963;SDS011;8598;50.508;10.436;2022-11-20T11:34:16;37.47;;;18.23;;
16963;SDS011;8598;50.508;10.436;2022-11-20T11:36:48;33.80;;;17.50;;
16963;SDS011;8598;50.508;10.436;2022-11-20T11:39:19;40.67;;;17.43;;
16963;SDS011;8598;50.508;10.436;2022-11-20T11:41:47;32.77;;;16.10;;
16963;SDS011;8598;50.508;10.436;2022-11-20T11:44:15;33.90;;;16.07;;
16963;SDS011;8598;50.508;10.436;2022-11-20T11:47:02;42.00;;;19.63;;
16963;SDS011;8598;50.508;10.436;2022-11-20T11:49:31;42.03;;;20.93;;
16963;SDS011;8598;50.508;10.436;2022-11-20T11:52:00;52.03;;;25.43;;
16963;SDS011;8598;50.508;10.436;2022-11-20T11:54:34;42.70;;;22.10;;
16963;SDS011;8598;50.508;10.436;2022-11-20T11:57:05;43.80;;;20.87;;
16963;SDS011;8598;50.508;10.436;2022-11-20T11:59:44;41.63;;;22.03;;
16963;SDS011;8598;50.508;10.436;2022-11-20T12:02:24;41.43;;;22.10;;
16963;SDS011;8598;50.508;10.436;2022-11-20T12:04:58;41.07;;;21.70;;
16963;SDS011;8598;50.508;10.436;2022-11-20T12:07:33;42.03;;;18.57;;
16963;SDS011;8598;50.508;10.436;2022-11-20T12:10:12;40.47;;;19.90;;
16963;SDS011;8598;50.508;10.436;2022-11-20T12:12:44;37.40;;;18.37;;
16963;SDS011;8598;50.508;10.436;2022-11-20T12:15:16;38.43;;;17.20;;
16963;SDS011;8598;50.508;10.436;2022-11-20T12:17:57;37.27;;;17.67;;
16963;SDS011;8598;50.508;10.436;2022-11-20T12:20:25;37.57;;;19.97;;
16963;SDS011;8598;50.508;10.436;2022-11-20T12:22:58;36.53;;;17.87;;
16963;SDS011;8598;50.508;10.436;2022-11-20T12:25:33;41.67;;;20.40;;
16963;SDS011;8598;50.508;10.436;2022-11-20T12:28:10;44.43;;;19.93;;
16963;SDS011;8598;50.508;10.436;2022-11-20T12:31:13;40.17;;;20.07;;
16963;SDS011;8598;50.508;10.436;2022-11-20T12:33:54;36.30;;;19.27;;
16963;SDS011;8598;50.508;10.436;2022-11-20T12:36:31;37.10;;;17.30;;
16963;SDS011;8598;50.508;10.436;2022-11-20T12:42:17;38.47;;;17.90;;
16963;SDS011;8598;50.508;10.436;2022-11-20T12:45:23;35.00;;;17.37;;
16963;SDS011;8598;50.508;10.436;2022-11-20T12:50:59;46.80;;;20.63;;
16963;SDS011;8598;50.508;10.436;2022-11-20T12:53:41;47.30;;;23.43;;
16963;SDS011;8598;50.508;10.436;2022-11-20T12:56:17;44.33;;;19.00;;
16963;SDS011;8598;50.508;10.436;2022-11-20T12:58:58;36.90;;;18.00;;
16963;SDS011;8598;50.508;10.436;2022-11-20T13:01:36;41.67;;;19.77;;
16963;SDS011;8598;50.508;10.436;2022-11-20T13:04:15;41.87;;;19.00;;
16963;SDS011;8598;50.508;10.436;2022-11-20T13:06:50;44.17;;;17.87;;
16963;SDS011;8598;50.508;10.436;2022-11-20T13:09:18;44.37;;;19.70;;
16963;SDS011;8598;50.508;10.436;2022-11-20T13:11:49;39.87;;;18.40;;
16963;SDS011;8598;50.508;10.436;2022-11-20T13:14:29;38.83;;;17.33;;
16963;SDS011;8598;50.508;10.436;2022-11-20T13:17:03;43.27;;;18.93;;
16963;SDS011;8598;50.508;10.436;2022-11-20T13:19:33;42.53;;;19.13;;
16963;SDS011;8598;50.508;10.436;2022-11-20T13:22:00;39.87;;;18.37;;
16963;SDS011;8598;50.508;10.436;2022-11-20T13:24:30;34.90;;;17.53;;
16963;SDS011;8598;50.508;10.436;2022-11-20T13:27:01;41.93;;;19.07;;
16963;SDS011;8598;50.508;10.436;2022-11-20T13:29:31;41.23;;;19.77;;
16963;SDS011;8598;50.508;10.436;2022-11-20T13:32:02;37.87;;;18.00;;
16963;SDS011;8598;50.508;10.436;2022-11-20T13:34:31;41.80;;;19.43;;
16963;SDS011;8598;50.508;10.436;2022-11-20T13:36:59;39.53;;;18.20;;
16963;SDS011;8598;50.508;10.436;2022-11-20T13:39:29;37.73;;;18.00;;
16963;SDS011;8598;50.508;10.436;2022-11-20T13:41:58;45.93;;;20.80;;
16963;SDS011;8598;50.508;10.436;2022-11-20T13:44:30;38.00;;;17.23;;
16963;SDS011;8598;50.508;10.436;2022-11-20T13:47:03;39.57;;;18.97;;
16963;SDS011;8598;50.508;10.436;2022-11-20T13:49:44;43.47;;;20.70;;
16963;SDS011;8598;50.508;10.436;2022-11-20T13:52:26;39.50;;;20.40;;
16963;SDS011;8598;50.508;10.436;2022-11-20T13:55:06;40.97;;;18.10;;
16963;SDS011;8598;50.508;10.436;2022-11-20T13:57:52;50.10;;;24.10;;
16963;SDS011;8598;50.508;10.436;2022-11-20T14:00:44;31.93;;;16.90;;
16963;SDS011;8598;50.508;10.436;2022-11-20T14:03:17;40.43;;;18.37;;
16963;SDS011;8598;50.508;10.436;2022-11-20T14:05:48;39.93;;;20.33;;
16963;SDS011;8598;50.508;10.436;2022-11-20T14:08:23;47.00;;;19.57;;
16963;SDS011;8598;50.508;10.436;2022-11-20T14:11:02;39.53;;;19.17;;
16963;SDS011;8598;50.508;10.436;2022-11-20T14:13:39;48.63;;;22.87;;
16963;SDS011;8598;50.508;10.436;2022-11-20T14:16:20;48.63;;;24.33;;
16963;SDS011;8598;50.508;10.436;2022-11-20T14:18:47;37.57;;;18.53;;
16963;SDS011;8598;50.508;10.436;2022-11-20T14:21:21;40.37;;;19.00;;
16963;SDS011;8598;50.508;10.436;2022-11-20T14:23:49;45.17;;;18.43;;
16963;SDS011;8598;50.508;10.436;2022-11-20T14:26:19;42.57;;;19.13;;
16963;SDS011;8598;50.508;10.436;2022-11-20T14:28:47;35.30;;;16.37;;
16963;SDS011;8598;50.508;10.436;2022-11-20T14:31:17;38.87;;;17.43;;
16963;SDS011;8598;50.508;10.436;2022-11-20T14:33:49;44.10;;;20.13;;
16963;SDS011;8598;50.508;10.436;2022-11-20T14:36:16;52.73;;;24.30;;
16963;SDS011;8598;50.508;10.436;2022-11-20T14:38:45;123.10;;;46.00;;
16963;SDS011;8598;50.508;10.436;2022-11-20T14:41:16;131.23;;;46.97;;
16963;SDS011;8598;50.508;10.436;2022-11-20T14:43:45;104.43;;;40.83;;
16963;SDS011;8598;50.508;10.436;2022-11-20T14:46:13;81.93;;;32.13;;
16963;SDS011;8598;50.508;10.436;2022-11-20T14:48:43;111.13;;;40.80;;